Time;durP1;ratioP1;P1;durP2;ratioP2;P2;SDS_P1;SDS_P2;PMS_P1;PMS_P2;Temp;Humidity;BMP_temperature;BMP_pressure;BME280_temperature;BME280_humidity;BME280_pressure;Samples;Min_cycle;Max_cycle;Signal;HPM_P1;HPM_P2
2023/01/29 00:02:17;;;;;;;13.80;8.00;;;;;;;;;;4997316;28;20341;-60
2023/01/29 00:04:44;;;;;;;10.57;6.90;;;;;;;;;;4996849;28;20234;-61
2023/01/29 00:07:11;;;;;;;14.13;7.90;;;;;;;;;;4995722;28;20206;-61
2023/01/29 00:09:39;;;;;;;14.70;7.97;;;;;;;;;;4996920;28;20214;-60
2023/01/29 00:12:09;;;;;;;13.90;7.67;;;;;;;;;;4996724;28;20241;-60
2023/01/29 00:14:36;;;;;;;12.50;7.33;;;;;;;;;;4996765;28;20256;-60
2023/01/29 00:17:03;;;;;;;11.97;7.90;;;;;;;;;;4996963;28;20202;-60
2023/01/29 00:19:30;;;;;;;11.97;7.70;;;;;;;;;;4996615;28;20202;-60
2023/01/29 00:21:57;;;;;;;12.27;7.60;;;;;;;;;;4996557;28;20650;-60
2023/01/29 00:24:24;;;;;;;11.60;7.40;;;;;;;;;;4996435;28;20213;-60
2023/01/29 00:26:52;;;;;;;14.13;7.83;;;;;;;;;;4997114;28;20222;-60
2023/01/29 00:29:20;;;;;;;10.53;7.07;;;;;;;;;;4997064;28;20210;-60
2023/01/29 00:31:48;;;;;;;12.30;7.60;;;;;;;;;;4996447;28;20237;-60
2023/01/29 00:34:15;;;;;;;9.83;6.33;;;;;;;;;;4995690;28;20198;-61
2023/01/29 00:36:44;;;;;;;10.53;6.60;;;;;;;;;;4996352;28;20209;-61
2023/01/29 00:39:11;;;;;;;13.43;8.30;;;;;;;;;;4995484;28;20210;-61
2023/01/29 00:49:56;;;;;;;12.80;5.70;;;;;;;;;;5015363;28;20225;-60
2023/01/29 00:52:24;;;;;;;10.60;6.07;;;;;;;;;;5016178;28;20253;-60
2023/01/29 00:54:52;;;;;;;10.33;6.07;;;;;;;;;;5015550;28;20213;-60
2023/01/29 00:57:20;;;;;;;9.77;5.80;;;;;;;;;;5014747;28;20533;-60
2023/01/29 00:59:47;;;;;;;10.47;5.93;;;;;;;;;;5015277;28;20288;-60
2023/01/29 01:05:05;;;;;;;10.60;6.30;;;;;;;;;;5014735;28;20240;-61
2023/01/29 01:07:32;;;;;;;11.17;6.13;;;;;;;;;;5015290;28;20256;-60
2023/01/29 01:13:12;;;;;;;8.53;5.43;;;;;;;;;;5015211;28;20658;-61
2023/01/29 01:15:39;;;;;;;8.97;5.80;;;;;;;;;;5013618;28;20201;-60
2023/01/29 01:18:06;;;;;;;7.77;4.43;;;;;;;;;;5014108;28;20217;-61
2023/01/29 01:20:34;;;;;;;8.20;5.40;;;;;;;;;;5015341;28;20212;-60
2023/01/29 01:23:02;;;;;;;8.40;5.10;;;;;;;;;;5015555;28;20584;-60
2023/01/29 01:25:29;;;;;;;7.27;4.70;;;;;;;;;;5014690;28;20204;-60
2023/01/29 01:27:58;;;;;;;7.43;5.30;;;;;;;;;;5014454;28;20224;-60
2023/01/29 01:30:25;;;;;;;5.87;4.10;;;;;;;;;;5015286;28;20201;-60
2023/01/29 01:32:52;;;;;;;6.87;4.63;;;;;;;;;;5014858;28;20229;-60
2023/01/29 01:35:19;;;;;;;7.80;4.67;;;;;;;;;;5015171;28;20287;-60
2023/01/29 01:37:47;;;;;;;7.50;4.23;;;;;;;;;;5015205;28;20205;-60
2023/01/29 01:40:16;;;;;;;7.00;4.20;;;;;;;;;;5014719;28;20197;-60
2023/01/29 01:42:50;;;;;;;6.23;4.40;;;;;;;;;;5014399;28;20205;-61
2023/01/29 01:45:25;;;;;;;8.23;5.07;;;;;;;;;;5015138;28;20193;-60
2023/01/29 01:48:06;;;;;;;7.13;4.40;;;;;;;;;;5014883;28;20262;-60
2023/01/29 01:51:02;;;;;;;7.47;4.43;;;;;;;;;;5014386;28;20266;-60
2023/01/29 01:53:53;;;;;;;7.30;4.73;;;;;;;;;;5011607;28;20221;-60
2023/01/29 01:56:24;;;;;;;8.27;5.40;;;;;;;;;;5014120;28;20205;-60
2023/01/29 01:58:54;;;;;;;15.10;6.10;;;;;;;;;;5014744;28;20216;-59
2023/01/29 02:01:28;;;;;;;9.50;5.40;;;;;;;;;;5014795;28;20209;-60
2023/01/29 02:09:59;;;;;;;7.97;5.47;;;;;;;;;;5008010;28;20248;-60
2023/01/29 02:12:29;;;;;;;9.97;5.33;;;;;;;;;;4995229;28;20280;-60
2023/01/29 02:14:57;;;;;;;9.20;5.97;;;;;;;;;;4995414;28;20206;-60
2023/01/29 02:17:24;;;;;;;9.67;6.23;;;;;;;;;;4994908;28;20567;-60
2023/01/29 02:19:51;;;;;;;9.57;5.93;;;;;;;;;;4995094;28;20221;-60
2023/01/29 02:22:32;;;;;;;12.10;6.77;;;;;;;;;;4994287;28;20268;-60
2023/01/29 02:25:21;;;;;;;9.60;6.57;;;;;;;;;;4995128;28;20214;-60
2023/01/29 02:27:48;;;;;;;10.37;6.77;;;;;;;;;;4995800;28;20272;-60
2023/01/29 02:30:22;;;;;;;13.13;7.47;;;;;;;;;;4996647;28;20210;-60
2023/01/29 02:32:57;;;;;;;12.27;6.97;;;;;;;;;;4998460;28;20206;-60
2023/01/29 02:35:32;;;;;;;12.40;7.47;;;;;;;;;;4997885;28;20194;-60
2023/01/29 02:38:04;;;;;;;9.60;6.63;;;;;;;;;;4982230;28;20206;-60
2023/01/29 02:41:03;;;;;;;14.87;8.20;;;;;;;;;;4999223;28;20233;-60
2023/01/29 02:43:30;;;;;;;14.53;7.53;;;;;;;;;;4996854;28;20206;-60
2023/01/29 02:46:23;;;;;;;13.17;7.60;;;;;;;;;;4997324;28;20206;-59
2023/01/29 02:49:21;;;;;;;14.07;7.37;;;;;;;;;;4997368;28;20627;-60
2023/01/29 02:52:00;;;;;;;12.83;7.30;;;;;;;;;;4997437;28;20221;-60
2023/01/29 02:54:46;;;;;;;14.20;7.70;;;;;;;;;;4997490;28;20220;-60
2023/01/29 02:57:17;;;;;;;13.93;8.03;;;;;;;;;;4981528;28;20535;-60
2023/01/29 02:59:49;;;;;;;12.50;7.70;;;;;;;;;;4997441;28;20221;-60
2023/01/29 03:02:25;;;;;;;14.30;8.40;;;;;;;;;;4981468;28;20210;-60
2023/01/29 03:04:57;;;;;;;12.53;7.97;;;;;;;;;;4981401;28;20234;-60
2023/01/29 03:07:44;;;;;;;7.77;5.50;;;;;;;;;;4997365;28;20206;-59
2023/01/29 03:10:20;;;;;;;13.33;7.83;;;;;;;;;;4984288;28;20205;-60
2023/01/29 03:12:58;;;;;;;19.33;9.03;;;;;;;;;;4997205;28;20230;-60
2023/01/29 03:15:30;;;;;;;14.13;8.30;;;;;;;;;;4981234;28;20205;-60
2023/01/29 03:18:26;;;;;;;15.37;8.07;;;;;;;;;;4996944;28;20206;-60
2023/01/29 03:21:02;;;;;;;14.10;8.83;;;;;;;;;;4997514;28;20190;-60
2023/01/29 03:32:06;;;;;;;13.37;8.93;;;;;;;;;;4982894;28;20280;-60
2023/01/29 03:34:42;;;;;;;15.17;9.77;;;;;;;;;;4997123;28;20217;-60
2023/01/29 03:37:39;;;;;;;14.77;9.40;;;;;;;;;;4997648;28;20209;-60
2023/01/29 03:40:08;;;;;;;15.80;10.17;;;;;;;;;;4996138;28;20214;-60
2023/01/29 03:42:41;;;;;;;16.10;9.93;;;;;;;;;;5013256;28;20213;-60
2023/01/29 03:45:25;;;;;;;14.73;8.97;;;;;;;;;;4997978;28;20280;-60
2023/01/29 03:48:16;;;;;;;17.33;9.77;;;;;;;;;;4996808;28;20198;-60
2023/01/29 03:51:02;;;;;;;17.30;9.93;;;;;;;;;;5012580;28;20206;-60
2023/01/29 03:53:30;;;;;;;17.93;10.47;;;;;;;;;;4996555;28;20250;-60
2023/01/29 03:56:02;;;;;;;11.37;7.37;;;;;;;;;;4996169;28;20217;-60
2023/01/29 03:58:40;;;;;;;10.90;6.80;;;;;;;;;;4995620;28;20551;-60
2023/01/29 04:01:18;;;;;;;9.70;6.40;;;;;;;;;;4979528;28;20268;-60
2023/01/29 04:03:53;;;;;;;9.27;6.60;;;;;;;;;;4979125;28;20252;-60
2023/01/29 04:06:26;;;;;;;11.43;6.87;;;;;;;;;;4979382;28;20643;-60
2023/01/29 04:09:06;;;;;;;10.27;6.43;;;;;;;;;;4980438;28;20301;-60
2023/01/29 04:11:39;;;;;;;9.60;6.07;;;;;;;;;;4979477;28;20228;-60
2023/01/29 04:14:06;;;;;;;8.67;5.97;;;;;;;;;;4995233;28;20241;-60
2023/01/29 04:16:40;;;;;;;8.77;5.57;;;;;;;;;;4995049;28;20214;-60
2023/01/29 04:19:33;;;;;;;9.63;5.93;;;;;;;;;;4980330;28;20659;-60
2023/01/29 04:22:06;;;;;;;8.83;4.70;;;;;;;;;;4979001;28;20218;-60
2023/01/29 04:24:33;;;;;;;8.03;5.63;;;;;;;;;;4978775;28;20206;-60
2023/01/29 04:27:31;;;;;;;7.10;4.93;;;;;;;;;;4994748;28;20209;-60
2023/01/29 04:30:05;;;;;;;6.70;5.20;;;;;;;;;;4990491;28;20216;-60
2023/01/29 04:32:53;;;;;;;6.53;4.03;;;;;;;;;;4996925;28;20234;-60
2023/01/29 04:35:46;;;;;;;7.40;4.77;;;;;;;;;;4996268;28;20212;-60
2023/01/29 04:38:48;;;;;;;8.10;4.83;;;;;;;;;;4995540;28;20229;-60
2023/01/29 04:41:21;;;;;;;7.00;4.80;;;;;;;;;;4996651;28;20202;-61
2023/01/29 04:44:05;;;;;;;7.67;5.03;;;;;;;;;;4996372;28;20210;-60
2023/01/29 04:46:34;;;;;;;5.43;4.10;;;;;;;;;;4996693;28;20186;-60
2023/01/29 04:49:40;;;;;;;7.57;4.50;;;;;;;;;;5011194;28;20202;-60
2023/01/29 04:52:28;;;;;;;8.17;4.90;;;;;;;;;;4980236;28;20226;-60
2023/01/29 04:55:09;;;;;;;6.37;4.50;;;;;;;;;;4996362;28;20650;-60
2023/01/29 04:57:45;;;;;;;5.40;3.83;;;;;;;;;;5011248;28;20650;-60
2023/01/29 05:00:14;;;;;;;7.77;4.27;;;;;;;;;;4995918;28;20635;-60
2023/01/29 05:02:43;;;;;;;14.67;7.17;;;;;;;;;;4995969;28;20252;-60
2023/01/29 05:05:12;;;;;;;6.77;4.33;;;;;;;;;;4996000;28;20237;-60
2023/01/29 05:07:40;;;;;;;10.73;5.13;;;;;;;;;;4995055;28;20555;-60
2023/01/29 05:10:10;;;;;;;7.80;5.20;;;;;;;;;;4994729;28;20206;-60
2023/01/29 05:12:37;;;;;;;7.90;4.60;;;;;;;;;;4995783;28;20604;-60
2023/01/29 05:15:09;;;;;;;6.20;4.33;;;;;;;;;;4994629;28;20206;-59
2023/01/29 05:17:36;;;;;;;5.30;3.77;;;;;;;;;;4995106;28;20198;-60
2023/01/29 05:20:05;;;;;;;5.93;3.90;;;;;;;;;;4995439;28;20206;-60
2023/01/29 05:22:36;;;;;;;6.67;4.20;;;;;;;;;;4994727;28;20276;-59
2023/01/29 05:25:14;;;;;;;6.80;4.17;;;;;;;;;;5010817;28;20659;-60
2023/01/29 05:30:27;;;;;;;8.73;3.30;;;;;;;;;;4994956;28;20650;-60
2023/01/29 05:32:55;;;;;;;6.83;3.53;;;;;;;;;;4995605;28;20230;-60
2023/01/29 05:35:22;;;;;;;5.00;3.33;;;;;;;;;;4994414;28;20646;-60
2023/01/29 05:37:49;;;;;;;5.37;4.00;;;;;;;;;;4995422;28;20631;-60
2023/01/29 05:40:16;;;;;;;9.23;4.07;;;;;;;;;;4995452;28;20209;-60
2023/01/29 05:42:44;;;;;;;3.97;3.20;;;;;;;;;;4995175;28;20210;-59
2023/01/29 05:45:11;;;;;;;9.57;4.67;;;;;;;;;;4995109;28;20268;-59
2023/01/29 05:47:38;;;;;;;7.37;4.63;;;;;;;;;;4995047;28;20206;-60
2023/01/29 05:50:06;;;;;;;7.30;4.47;;;;;;;;;;4995133;28;20198;-60
2023/01/29 05:52:33;;;;;;;6.23;4.20;;;;;;;;;;4993151;28;20316;-58
2023/01/29 05:55:01;;;;;;;9.00;4.97;;;;;;;;;;4990761;28;20514;-58
2023/01/29 05:57:28;;;;;;;10.13;5.87;;;;;;;;;;4994240;28;20264;-60
2023/01/29 05:59:55;;;;;;;12.57;5.80;;;;;;;;;;4994101;28;20566;-59
2023/01/29 06:02:22;;;;;;;13.47;5.27;;;;;;;;;;4993196;28;20659;-60
2023/01/29 06:04:51;;;;;;;16.77;6.27;;;;;;;;;;4991708;28;20232;-59
2023/01/29 06:07:18;;;;;;;10.17;5.50;;;;;;;;;;4997693;28;20197;-60
2023/01/29 06:09:45;;;;;;;127.40;42.87;;;;;;;;;;4997541;28;20217;-57
2023/01/29 06:12:12;;;;;;;145.37;54.87;;;;;;;;;;4997513;28;20214;-60
2023/01/29 06:14:39;;;;;;;15.50;7.93;;;;;;;;;;4997530;28;20503;-59
2023/01/29 06:17:06;;;;;;;14.20;6.43;;;;;;;;;;4997553;28;20264;-59
2023/01/29 06:19:34;;;;;;;9.80;4.63;;;;;;;;;;4994833;28;20207;-60
2023/01/29 06:22:01;;;;;;;11.37;5.43;;;;;;;;;;4997260;28;20289;-60
2023/01/29 06:24:28;;;;;;;13.47;6.20;;;;;;;;;;4997099;28;20209;-59
2023/01/29 06:26:55;;;;;;;13.87;5.43;;;;;;;;;;4997080;28;20207;-58
2023/01/29 06:29:23;;;;;;;15.50;6.37;;;;;;;;;;4997147;28;20631;-60
2023/01/29 06:31:50;;;;;;;17.63;6.17;;;;;;;;;;4997181;28;20202;-58
2023/01/29 06:34:17;;;;;;;32.70;11.13;;;;;;;;;;4997145;28;20597;-60
2023/01/29 06:36:44;;;;;;;15.90;6.33;;;;;;;;;;5012773;28;20249;-60
2023/01/29 06:39:11;;;;;;;14.23;6.60;;;;;;;;;;4998671;28;20206;-59
2023/01/29 06:41:38;;;;;;;12.83;5.60;;;;;;;;;;4998056;28;20198;-60
2023/01/29 06:44:06;;;;;;;13.07;5.87;;;;;;;;;;4998316;28;20222;-60
2023/01/29 06:46:33;;;;;;;9.87;5.23;;;;;;;;;;4998353;28;20268;-60
2023/01/29 06:49:01;;;;;;;7.50;4.60;;;;;;;;;;4998542;28;20206;-60
2023/01/29 06:51:27;;;;;;;10.47;4.90;;;;;;;;;;4998276;28;20205;-60
2023/01/29 06:53:55;;;;;;;55.97;24.43;;;;;;;;;;4998166;28;20226;-60
2023/01/29 06:56:22;;;;;;;22.33;12.23;;;;;;;;;;4999029;28;20198;-60
2023/01/29 06:58:50;;;;;;;11.90;5.30;;;;;;;;;;5018358;28;20216;-60
2023/01/29 07:01:17;;;;;;;9.67;4.87;;;;;;;;;;5017487;28;20712;-60
2023/01/29 07:04:02;;;;;;;7.77;4.80;;;;;;;;;;5017664;28;20237;-60
2023/01/29 07:06:29;;;;;;;8.50;5.60;;;;;;;;;;5017489;28;20205;-60
2023/01/29 07:08:57;;;;;;;6.53;3.97;;;;;;;;;;5017415;28;20206;-62
2023/01/29 07:11:24;;;;;;;10.80;5.13;;;;;;;;;;5017627;28;20205;-61
2023/01/29 07:13:51;;;;;;;11.40;5.40;;;;;;;;;;5017121;28;20229;-60
2023/01/29 07:16:18;;;;;;;21.47;11.00;;;;;;;;;;5005969;28;20572;-62
2023/01/29 07:18:45;;;;;;;9.90;5.77;;;;;;;;;;4998392;28;20202;-60
2023/01/29 07:21:13;;;;;;;8.43;5.10;;;;;;;;;;5017128;28;20631;-61
2023/01/29 07:23:40;;;;;;;12.30;6.00;;;;;;;;;;5017534;28;20213;-60
2023/01/29 07:26:07;;;;;;;21.67;7.13;;;;;;;;;;5017357;28;20210;-63
2023/01/29 07:28:37;;;;;;;11.10;5.70;;;;;;;;;;5003522;28;20222;-60
2023/01/29 07:31:05;;;;;;;15.83;6.30;;;;;;;;;;4986447;28;20221;-60
2023/01/29 07:33:33;;;;;;;10.47;5.63;;;;;;;;;;4978273;28;20623;-59
2023/01/29 07:36:00;;;;;;;18.90;8.53;;;;;;;;;;4997546;28;20197;-60
2023/01/29 07:38:28;;;;;;;43.57;15.03;;;;;;;;;;4996647;28;20229;-60
2023/01/29 07:40:55;;;;;;;118.93;52.57;;;;;;;;;;4997142;28;20209;-60
2023/01/29 07:43:23;;;;;;;28.13;12.60;;;;;;;;;;4992919;28;20233;-60
2023/01/29 07:45:50;;;;;;;11.17;6.90;;;;;;;;;;4996223;28;20578;-60
2023/01/29 07:48:18;;;;;;;13.30;7.00;;;;;;;;;;4995831;28;20276;-60
2023/01/29 07:50:53;;;;;;;15.83;7.33;;;;;;;;;;4996241;28;20245;-59
2023/01/29 07:53:21;;;;;;;13.37;7.80;;;;;;;;;;4991288;28;20225;-60
2023/01/29 07:55:47;;;;;;;22.10;8.70;;;;;;;;;;4994554;28;20214;-60
2023/01/29 07:58:15;;;;;;;16.53;8.23;;;;;;;;;;4995180;28;20248;-58
2023/01/29 08:00:42;;;;;;;52.23;22.83;;;;;;;;;;5011157;28;20272;-59
2023/01/29 08:03:12;;;;;;;17.83;9.30;;;;;;;;;;5015861;28;20236;-60
2023/01/29 08:05:39;;;;;;;48.43;24.33;;;;;;;;;;5015662;28;20252;-60
2023/01/29 08:08:06;;;;;;;20.73;11.00;;;;;;;;;;5015512;28;20232;-60
2023/01/29 08:10:34;;;;;;;10.13;7.20;;;;;;;;;;5015492;28;20236;-63
2023/01/29 08:13:03;;;;;;;11.83;7.60;;;;;;;;;;5015143;28;20618;-61
2023/01/29 08:15:30;;;;;;;17.20;8.33;;;;;;;;;;5015222;28;20283;-64
2023/01/29 08:17:57;;;;;;;15.43;7.63;;;;;;;;;;5003044;28;20226;-64
2023/01/29 08:20:24;;;;;;;16.20;6.73;;;;;;;;;;4995611;28;20222;-61
2023/01/29 08:23:00;;;;;;;11.37;6.90;;;;;;;;;;4995612;28;20292;-62
2023/01/29 08:25:28;;;;;;;14.13;6.40;;;;;;;;;;4995598;28;20616;-63
2023/01/29 08:27:56;;;;;;;17.77;9.50;;;;;;;;;;4994327;28;20237;-61
2023/01/29 08:30:28;;;;;;;12.57;6.73;;;;;;;;;;4995255;28;20250;-61
2023/01/29 08:32:56;;;;;;;10.37;5.77;;;;;;;;;;4995538;28;20737;-62
2023/01/29 08:35:23;;;;;;;10.63;6.20;;;;;;;;;;4995592;28;20226;-62
2023/01/29 08:38:02;;;;;;;9.27;5.87;;;;;;;;;;4995492;28;20237;-63
2023/01/29 08:40:31;;;;;;;13.70;6.53;;;;;;;;;;4995357;28;20226;-60
2023/01/29 08:43:01;;;;;;;15.90;7.23;;;;;;;;;;4994503;28;20555;-59
2023/01/29 08:45:32;;;;;;;21.07;9.63;;;;;;;;;;4993878;28;20250;-61
2023/01/29 08:47:59;;;;;;;34.10;14.40;;;;;;;;;;5007316;28;20225;-63
2023/01/29 08:50:29;;;;;;;20.73;9.03;;;;;;;;;;4995993;28;20230;-60
2023/01/29 08:52:58;;;;;;;15.53;7.37;;;;;;;;;;4993655;28;20551;-61
2023/01/29 08:55:25;;;;;;;13.07;7.17;;;;;;;;;;4993777;28;20554;-61
2023/01/29 08:57:53;;;;;;;15.47;7.80;;;;;;;;;;4993631;28;20249;-61
2023/01/29 09:00:20;;;;;;;15.93;7.53;;;;;;;;;;4993975;28;20312;-61
2023/01/29 09:02:48;;;;;;;18.10;7.33;;;;;;;;;;4995012;28;20249;-62
2023/01/29 09:05:15;;;;;;;73.77;32.17;;;;;;;;;;4994644;28;20241;-60
2023/01/29 09:07:43;;;;;;;59.60;29.87;;;;;;;;;;4993811;28;20229;-62
2023/01/29 09:10:11;;;;;;;14.83;7.90;;;;;;;;;;4994327;28;20674;-62
2023/01/29 09:12:38;;;;;;;15.70;8.50;;;;;;;;;;4993854;28;20699;-61
2023/01/29 09:15:05;;;;;;;13.93;7.30;;;;;;;;;;4994061;28;20237;-58
2023/01/29 09:17:33;;;;;;;15.77;8.40;;;;;;;;;;4987550;28;20226;-61
2023/01/29 09:20:00;;;;;;;12.60;5.63;;;;;;;;;;4994736;28;20229;-61
2023/01/29 09:22:27;;;;;;;12.80;6.77;;;;;;;;;;4994448;28;20237;-62
2023/01/29 09:24:54;;;;;;;12.53;6.87;;;;;;;;;;4994619;28;20295;-62
2023/01/29 09:27:22;;;;;;;13.37;7.30;;;;;;;;;;4994381;28;20253;-61
2023/01/29 09:29:49;;;;;;;19.33;9.00;;;;;;;;;;4994279;28;20544;-61
2023/01/29 09:32:16;;;;;;;12.07;6.77;;;;;;;;;;4994191;28;20229;-62
2023/01/29 09:35:04;;;;;;;14.17;7.50;;;;;;;;;;4986005;28;20321;-61
2023/01/29 09:37:31;;;;;;;20.33;9.07;;;;;;;;;;4993604;28;20606;-60
2023/01/29 09:39:58;;;;;;;15.23;7.20;;;;;;;;;;5000070;28;20222;-62
2023/01/29 09:42:47;;;;;;;15.47;7.17;;;;;;;;;;4999119;28;20850;-59
2023/01/29 09:45:20;;;;;;;19.27;8.10;;;;;;;;;;5000421;28;20272;-59
2023/01/29 09:47:47;;;;;;;19.67;8.80;;;;;;;;;;4994027;28;20233;-60
2023/01/29 09:50:44;;;;;;;64.53;35.93;;;;;;;;;;5000537;28;20284;-61
2023/01/29 09:53:25;;;;;;;22.70;11.70;;;;;;;;;;4979438;28;20246;-60
2023/01/29 09:56:00;;;;;;;17.40;10.13;;;;;;;;;;4979036;28;20226;-61
2023/01/29 09:58:31;;;;;;;13.30;7.57;;;;;;;;;;4977617;28;20225;-60
2023/01/29 10:01:26;;;;;;;12.90;7.23;;;;;;;;;;4978893;28;20242;-62
2023/01/29 10:04:33;;;;;;;17.90;7.87;;;;;;;;;;4960398;29;20247;-61
2023/01/29 10:07:03;;;;;;;16.40;8.37;;;;;;;;;;4958512;28;20265;-60
2023/01/29 10:09:43;;;;;;;14.60;7.17;;;;;;;;;;4979544;28;20230;-61
2023/01/29 10:12:33;;;;;;;13.33;7.77;;;;;;;;;;4962508;28;20260;-57
2023/01/29 10:15:11;;;;;;;12.37;7.03;;;;;;;;;;4979654;28;20230;-61
2023/01/29 10:17:55;;;;;;;16.67;8.70;;;;;;;;;;4979369;28;20222;-61
2023/01/29 10:20:52;;;;;;;26.20;15.93;;;;;;;;;;4971118;28;20284;-61
2023/01/29 10:23:24;;;;;;;13.20;7.07;;;;;;;;;;4979370;28;20585;-61
2023/01/29 10:25:52;;;;;;;14.87;8.20;;;;;;;;;;4957923;28;20588;-60
2023/01/29 10:28:45;;;;;;;14.00;7.70;;;;;;;;;;4979743;28;20203;-60
2023/01/29 10:31:26;;;;;;;15.23;7.87;;;;;;;;;;4999265;28;20195;-60
2023/01/29 10:33:56;;;;;;;16.47;7.87;;;;;;;;;;5000674;28;20210;-60
2023/01/29 10:37:00;;;;;;;19.90;8.77;;;;;;;;;;5000614;28;20205;-61
2023/01/29 10:39:29;;;;;;;47.00;19.23;;;;;;;;;;4999595;28;20260;-60
2023/01/29 10:42:17;;;;;;;22.77;11.17;;;;;;;;;;5001638;28;20202;-60
2023/01/29 10:44:53;;;;;;;12.87;6.47;;;;;;;;;;5001442;28;20201;-60
2023/01/29 10:48:03;;;;;;;16.43;7.27;;;;;;;;;;5001438;28;20572;-59
2023/01/29 10:50:47;;;;;;;12.13;7.60;;;;;;;;;;4998868;28;20269;-60
2023/01/29 10:53:33;;;;;;;15.40;7.83;;;;;;;;;;4998134;28;20735;-60
2023/01/29 10:56:20;;;;;;;18.40;8.70;;;;;;;;;;4998862;28;20214;-60
2023/01/29 10:58:55;;;;;;;16.23;7.93;;;;;;;;;;4997547;28;20231;-61
2023/01/29 11:01:23;;;;;;;23.63;11.20;;;;;;;;;;4997132;28;20620;-61
2023/01/29 11:04:00;;;;;;;17.10;9.30;;;;;;;;;;4998172;28;20249;-60
2023/01/29 11:06:32;;;;;;;13.40;8.07;;;;;;;;;;4998251;28;20202;-60
2023/01/29 11:09:28;;;;;;;14.83;7.93;;;;;;;;;;4998602;28;20217;-60
2023/01/29 11:12:05;;;;;;;16.67;7.63;;;;;;;;;;4998190;28;20198;-60
2023/01/29 11:14:53;;;;;;;13.90;7.70;;;;;;;;;;4997241;28;20242;-60
2023/01/29 11:17:22;;;;;;;16.07;7.77;;;;;;;;;;4998017;28;20202;-60
2023/01/29 11:19:51;;;;;;;18.80;10.33;;;;;;;;;;4998235;28;20206;-60
2023/01/29 11:22:23;;;;;;;22.73;13.03;;;;;;;;;;4997710;28;20217;-60
2023/01/29 11:25:16;;;;;;;27.57;10.90;;;;;;;;;;4997523;28;20202;-60
2023/01/29 11:27:52;;;;;;;15.77;8.10;;;;;;;;;;4997894;28;20284;-61
2023/01/29 11:30:23;;;;;;;12.73;7.13;;;;;;;;;;4996595;28;20272;-60
2023/01/29 11:32:59;;;;;;;15.67;7.57;;;;;;;;;;4997935;28;20198;-60
2023/01/29 11:35:29;;;;;;;13.13;7.03;;;;;;;;;;4997192;28;20229;-60
2023/01/29 11:38:14;;;;;;;14.17;7.27;;;;;;;;;;4997607;28;20272;-60
2023/01/29 11:40:42;;;;;;;15.77;7.83;;;;;;;;;;4981128;28;20198;-61
2023/01/29 11:43:29;;;;;;;26.47;11.83;;;;;;;;;;4997373;28;20678;-60
2023/01/29 11:46:02;;;;;;;13.07;7.07;;;;;;;;;;4997178;28;20272;-60
2023/01/29 11:48:40;;;;;;;12.53;7.03;;;;;;;;;;4997157;28;20190;-60
2023/01/29 11:51:10;;;;;;;10.60;6.37;;;;;;;;;;4996883;28;20190;-60
2023/01/29 11:53:42;;;;;;;15.43;7.03;;;;;;;;;;4993089;28;20593;-59
2023/01/29 11:56:39;;;;;;;16.13;7.57;;;;;;;;;;5000990;28;20229;-60
2023/01/29 11:59:39;;;;;;;12.10;7.07;;;;;;;;;;4987753;28;20650;-61
2023/01/29 12:02:22;;;;;;;14.97;7.43;;;;;;;;;;4991108;28;20560;-62
2023/01/29 12:04:49;;;;;;;15.07;8.17;;;;;;;;;;4995202;28;20233;-61
2023/01/29 12:07:18;;;;;;;15.20;7.90;;;;;;;;;;4995185;28;20237;-60
2023/01/29 12:09:56;;;;;;;13.03;7.93;;;;;;;;;;4995414;28;20300;-61
2023/01/29 12:12:41;;;;;;;16.17;7.73;;;;;;;;;;4994808;28;20229;-60
2023/01/29 12:15:18;;;;;;;11.57;7.13;;;;;;;;;;4995791;28;20233;-60
2023/01/29 12:17:57;;;;;;;15.47;8.33;;;;;;;;;;4993774;28;20449;-58
2023/01/29 12:20:36;;;;;;;20.10;8.50;;;;;;;;;;4993244;28;20315;-59
2023/01/29 12:23:13;;;;;;;28.83;13.40;;;;;;;;;;4992998;28;20246;-58
2023/01/29 12:25:49;;;;;;;37.63;18.17;;;;;;;;;;4993437;28;20229;-58
2023/01/29 12:28:33;;;;;;;35.53;18.40;;;;;;;;;;4992699;28;20295;-58
2023/01/29 12:31:11;;;;;;;19.77;9.67;;;;;;;;;;4982101;28;20674;-58
2023/01/29 12:33:53;;;;;;;17.43;8.37;;;;;;;;;;4991007;28;20675;-60
2023/01/29 12:36:32;;;;;;;15.30;7.87;;;;;;;;;;4990477;28;20323;-60
2023/01/29 12:38:59;;;;;;;15.73;8.13;;;;;;;;;;4995091;28;20280;-61
2023/01/29 12:41:36;;;;;;;14.63;8.13;;;;;;;;;;4994876;28;20779;-59
2023/01/29 12:44:43;;;;;;;14.53;7.73;;;;;;;;;;4994703;28;20229;-58
2023/01/29 12:47:19;;;;;;;44.10;17.27;;;;;;;;;;5010479;28;20281;-61
2023/01/29 12:49:50;;;;;;;20.97;11.10;;;;;;;;;;4994836;28;20674;-59
2023/01/29 12:52:40;;;;;;;15.20;7.73;;;;;;;;;;4994808;28;20541;-60
2023/01/29 12:55:29;;;;;;;15.17;7.67;;;;;;;;;;4995047;28;20234;-62
2023/01/29 12:58:02;;;;;;;17.23;8.60;;;;;;;;;;4995178;28;20260;-61
2023/01/29 13:00:36;;;;;;;14.03;6.93;;;;;;;;;;4994860;28;20230;-59
2023/01/29 13:03:18;;;;;;;16.77;8.03;;;;;;;;;;4994591;28;20257;-61
2023/01/29 13:05:55;;;;;;;16.77;8.60;;;;;;;;;;4994891;28;20304;-61
2023/01/29 13:08:26;;;;;;;27.23;11.17;;;;;;;;;;4995119;28;20226;-61
2023/01/29 13:10:55;;;;;;;16.53;8.87;;;;;;;;;;4986058;28;20233;-63
2023/01/29 13:13:38;;;;;;;18.27;9.23;;;;;;;;;;4992828;28;20276;-61
2023/01/29 13:16:09;;;;;;;15.20;8.60;;;;;;;;;;4994761;28;20245;-61
2023/01/29 13:18:50;;;;;;;22.17;8.97;;;;;;;;;;5010054;28;20314;-60
2023/01/29 13:21:19;;;;;;;17.27;9.43;;;;;;;;;;5013067;28;20562;-61
2023/01/29 13:23:50;;;;;;;24.70;10.17;;;;;;;;;;5014005;28;20241;-62
2023/01/29 13:26:18;;;;;;;20.23;9.33;;;;;;;;;;4994631;28;20280;-62
2023/01/29 13:28:46;;;;;;;38.73;21.30;;;;;;;;;;4994325;28;20230;-60
2023/01/29 13:31:32;;;;;;;20.80;12.47;;;;;;;;;;4994622;28;20682;-60
2023/01/29 13:34:11;;;;;;;17.63;9.27;;;;;;;;;;4993884;28;20301;-58
2023/01/29 13:37:00;;;;;;;17.63;8.33;;;;;;;;;;4993570;28;20304;-60
2023/01/29 13:39:42;;;;;;;21.60;9.63;;;;;;;;;;4993597;28;20236;-59
2023/01/29 13:42:16;;;;;;;21.27;9.50;;;;;;;;;;4994034;28;20276;-61
2023/01/29 13:44:47;;;;;;;19.60;9.30;;;;;;;;;;4994612;28;20280;-61
2023/01/29 13:47:29;;;;;;;24.90;10.47;;;;;;;;;;4993526;28;20210;-60
2023/01/29 13:50:00;;;;;;;16.63;9.47;;;;;;;;;;4993454;28;20233;-60
2023/01/29 13:52:33;;;;;;;21.57;10.73;;;;;;;;;;4993677;28;20609;-59
2023/01/29 13:55:29;;;;;;;17.70;9.97;;;;;;;;;;4994293;28;20245;-60
2023/01/29 13:57:59;;;;;;;39.40;25.57;;;;;;;;;;4994040;28;20230;-61
2023/01/29 14:00:32;;;;;;;39.80;17.13;;;;;;;;;;4977494;28;20245;-59
2023/01/29 14:02:59;;;;;;;20.30;10.10;;;;;;;;;;4994264;28;20552;-60
2023/01/29 14:05:30;;;;;;;17.90;9.40;;;;;;;;;;4993836;28;20262;-60
2023/01/29 14:08:00;;;;;;;21.43;9.73;;;;;;;;;;4994171;28;20538;-60
2023/01/29 14:10:32;;;;;;;18.37;9.57;;;;;;;;;;4993962;28;20313;-58
2023/01/29 14:13:03;;;;;;;20.50;9.30;;;;;;;;;;4992942;28;20222;-61
2023/01/29 14:15:32;;;;;;;21.63;10.37;;;;;;;;;;4993755;28;20682;-56
2023/01/29 14:18:08;;;;;;;24.00;11.33;;;;;;;;;;4994080;28;20214;-61
2023/01/29 14:20:47;;;;;;;21.60;11.60;;;;;;;;;;4994324;28;20213;-61
2023/01/29 14:23:43;;;;;;;19.63;10.50;;;;;;;;;;4977020;28;20217;-61
2023/01/29 14:26:37;;;;;;;23.33;12.10;;;;;;;;;;4996218;28;20246;-61
2023/01/29 14:29:11;;;;;;;34.73;18.53;;;;;;;;;;4997777;28;20559;-61
2023/01/29 14:31:59;;;;;;;19.57;11.17;;;;;;;;;;4997636;28;20620;-61
2023/01/29 14:34:30;;;;;;;19.80;10.00;;;;;;;;;;5012987;28;20229;-61
2023/01/29 14:37:19;;;;;;;20.33;10.73;;;;;;;;;;4996458;28;20245;-62
2023/01/29 14:39:49;;;;;;;23.50;10.97;;;;;;;;;;4997593;28;20233;-60
2023/01/29 14:42:21;;;;;;;18.37;10.77;;;;;;;;;;4997016;28;20272;-61
2023/01/29 14:44:54;;;;;;;24.60;11.60;;;;;;;;;;4996945;28;20230;-61
2023/01/29 14:47:42;;;;;;;35.37;13.33;;;;;;;;;;4996570;28;20325;-57
2023/01/29 14:50:27;;;;;;;24.77;13.77;;;;;;;;;;4996997;28;20226;-61
2023/01/29 14:53:19;;;;;;;18.33;10.53;;;;;;;;;;4996588;28;20277;-61
2023/01/29 14:56:08;;;;;;;21.37;10.50;;;;;;;;;;4996957;28;20249;-61
2023/01/29 14:58:45;;;;;;;21.60;10.83;;;;;;;;;;4995972;28;20233;-60
2023/01/29 15:01:22;;;;;;;23.90;12.30;;;;;;;;;;4981269;28;20222;-61
2023/01/29 15:03:57;;;;;;;29.37;13.10;;;;;;;;;;4986666;28;20233;-61
2023/01/29 15:06:33;;;;;;;42.00;16.20;;;;;;;;;;4994545;28;20213;-61
2023/01/29 15:09:11;;;;;;;73.57;36.37;;;;;;;;;;4996457;28;20190;-61
2023/01/29 15:12:23;;;;;;;42.10;18.83;;;;;;;;;;4996417;28;20194;-61
2023/01/29 15:15:02;;;;;;;23.13;13.17;;;;;;;;;;4995437;28;20319;-61
2023/01/29 15:17:33;;;;;;;22.30;11.97;;;;;;;;;;4996974;28;20568;-60
2023/01/29 15:20:00;;;;;;;22.83;11.97;;;;;;;;;;4998057;28;20190;-59
2023/01/29 15:22:31;;;;;;;23.47;12.13;;;;;;;;;;4997643;28;20206;-61
2023/01/29 15:25:13;;;;;;;26.90;13.23;;;;;;;;;;4997811;28;20209;-61
2023/01/29 15:27:42;;;;;;;30.40;14.13;;;;;;;;;;4997613;28;20209;-61
2023/01/29 15:30:15;;;;;;;44.50;18.83;;;;;;;;;;4997306;28;20566;-60
2023/01/29 15:32:43;;;;;;;27.10;13.13;;;;;;;;;;4996564;28;20178;-60
2023/01/29 15:35:16;;;;;;;22.97;12.57;;;;;;;;;;4996572;28;20229;-60
2023/01/29 15:37:57;;;;;;;25.27;12.83;;;;;;;;;;4997031;28;20213;-60
2023/01/29 15:40:25;;;;;;;24.30;12.50;;;;;;;;;;4997527;28;20194;-61
2023/01/29 15:42:52;;;;;;;22.57;12.57;;;;;;;;;;4996188;28;20972;-61
2023/01/29 15:45:30;;;;;;;28.57;12.53;;;;;;;;;;4997239;28;20245;-61